Time;durP1;ratioP1;P1;durP2;ratioP2;P2;SDS_P1;SDS_P2;PMS_P1;PMS_P2;Temp;Humidity;BMP_temperature;BMP_pressure;BME280_temperature;BME280_humidity;BME280_pressure;Samples;Min_cycle;Max_cycle;Signal;HPM_P1;HPM_P2
2021/07/20 00:01:13;;;;;;;0.90;0.90;;;22.60;99.90;;;;;;4976127;28;20038;-81
2021/07/20 00:03:38;;;;;;;1.30;1.20;;;22.70;99.90;;;;;;4992980;28;20030;-76
2021/07/20 00:06:04;;;;;;;2.00;1.50;;;22.70;99.90;;;;;;4979920;28;20031;-78
2021/07/20 00:08:30;;;;;;;1.00;1.00;;;22.70;99.90;;;;;;4973671;28;20510;-79
2021/07/20 00:11:02;;;;;;;1.65;1.55;;;22.70;99.90;;;;;;4973657;28;20466;-78
2021/07/20 00:13:28;;;;;;;1.05;1.02;;;22.70;99.90;;;;;;4973235;28;20035;-79
2021/07/20 00:15:55;;;;;;;1.13;1.10;;;22.70;99.90;;;;;;4973552;28;20027;-81
2021/07/20 00:18:25;;;;;;;1.00;1.00;;;22.60;99.90;;;;;;4991790;28;20080;-78
2021/07/20 00:20:51;;;;;;;4.65;3.67;;;22.50;99.90;;;;;;4972916;28;20035;-78
2021/07/20 00:23:19;;;;;;;1.02;1.02;;;22.70;99.90;;;;;;4973670;28;20031;-81
2021/07/20 00:25:47;;;;;;;1.77;1.67;;;22.70;99.90;;;;;;4973533;28;20049;-77
2021/07/20 00:28:13;;;;;;;1.83;1.65;;;22.80;99.90;;;;;;4966912;28;20482;-78
2021/07/20 00:30:39;;;;;;;1.00;1.00;;;22.50;99.90;;;;;;4975677;28;20042;-76
2021/07/20 00:33:05;;;;;;;2.10;1.90;;;22.30;99.90;;;;;;4992253;28;20112;-77
2021/07/20 00:35:31;;;;;;;0.95;0.95;;;22.10;99.90;;;;;;4966698;28;20043;-78
2021/07/20 00:37:57;;;;;;;1.13;0.95;;;22.10;99.90;;;;;;4972658;28;20063;-75
2021/07/20 00:40:23;;;;;;;3.20;1.88;;;22.10;99.90;;;;;;4973631;28;20074;-76
2021/07/20 00:42:49;;;;;;;1.85;1.75;;;22.30;99.90;;;;;;4973012;28;20101;-77
2021/07/20 00:45:17;;;;;;;5.40;2.35;;;22.50;99.90;;;;;;4972595;28;20086;-76
2021/07/20 00:47:44;;;;;;;1.35;1.25;;;22.60;99.90;;;;;;4955662;28;20039;-76
2021/07/20 00:50:12;;;;;;;1.95;1.83;;;22.50;99.90;;;;;;4978014;28;20204;-74
2021/07/20 00:52:38;;;;;;;1.30;1.20;;;22.50;99.90;;;;;;4991925;28;20042;-75
2021/07/20 00:55:05;;;;;;;1.02;1.02;;;22.60;99.90;;;;;;4991981;28;20134;-76
2021/07/20 00:57:31;;;;;;;1.23;1.13;;;22.60;99.90;;;;;;5001597;28;20057;-76
2021/07/20 00:59:58;;;;;;;1.40;1.30;;;22.50;99.90;;;;;;4999591;28;20069;-75
2021/07/20 01:02:24;;;;;;;0.93;0.93;;;22.60;99.90;;;;;;5001273;28;20046;-76
2021/07/20 01:04:51;;;;;;;1.67;1.58;;;22.50;99.90;;;;;;5000957;28;20050;-78
2021/07/20 01:07:20;;;;;;;1.00;1.00;;;22.60;99.90;;;;;;5000254;28;20441;-79
2021/07/20 01:09:47;;;;;;;1.30;1.23;;;22.60;99.90;;;;;;5000607;28;20034;-75
2021/07/20 01:12:14;;;;;;;1.92;1.58;;;22.60;99.90;;;;;;4983558;28;20065;-74
2021/07/20 01:14:42;;;;;;;1.30;1.20;;;22.60;99.90;;;;;;4997161;28;20433;-79
2021/07/20 01:17:10;;;;;;;1.50;1.40;;;22.60;99.90;;;;;;5000304;28;20410;-77
2021/07/20 01:19:37;;;;;;;1.42;1.33;;;22.50;99.90;;;;;;5001240;28;20029;-77
2021/07/20 01:22:05;;;;;;;3.15;1.90;;;22.50;99.90;;;;;;4999838;28;20411;-76
2021/07/20 01:24:31;;;;;;;1.33;1.23;;;22.50;99.90;;;;;;5000021;28;20022;-74
2021/07/20 01:26:57;;;;;;;3.05;1.38;;;22.50;99.90;;;;;;5001487;28;20355;-80
2021/07/20 01:29:23;;;;;;;1.48;1.38;;;22.40;99.90;;;;;;4996669;28;20504;-75
2021/07/20 01:31:51;;;;;;;1.85;1.75;;;22.50;99.90;;;;;;5000052;28;20138;-81
2021/07/20 01:34:19;;;;;;;1.73;1.60;;;22.50;99.90;;;;;;5001107;28;20560;-75
2021/07/20 01:36:47;;;;;;;1.10;1.10;;;22.30;99.90;;;;;;5000114;28;20026;-73
2021/07/20 01:39:13;;;;;;;1.40;1.30;;;22.20;99.90;;;;;;4999421;28;20033;-75
2021/07/20 01:41:41;;;;;;;1.00;1.00;;;22.20;99.90;;;;;;5002060;28;20025;-76
2021/07/20 01:44:10;;;;;;;1.70;1.55;;;22.20;99.90;;;;;;4982509;28;20395;-77
2021/07/20 01:46:38;;;;;;;1.65;1.55;;;22.10;99.90;;;;;;5001584;28;20116;-76
2021/07/20 01:49:08;;;;;;;2.88;2.00;;;22.20;99.90;;;;;;4994271;28;20030;-79
2021/07/20 01:51:36;;;;;;;0.90;0.90;;;22.20;99.90;;;;;;4995835;28;20065;-80
2021/07/20 01:54:02;;;;;;;1.25;1.15;;;22.20;99.90;;;;;;4995251;28;20169;-80
2021/07/20 01:56:28;;;;;;;1.30;1.20;;;22.20;99.90;;;;;;4995739;28;20034;-76
2021/07/20 01:58:54;;;;;;;1.23;1.13;;;22.20;99.90;;;;;;4978052;28;20057;-79
2021/07/20 02:01:26;;;;;;;1.25;1.15;;;22.20;99.90;;;;;;4978172;28;20483;-81
2021/07/20 02:04:13;;;;;;;1.70;1.60;;;22.20;99.90;;;;;;4995541;28;20035;-77
2021/07/20 02:09:29;;;;;;;1.10;1.10;;;22.20;99.90;;;;;;4995070;28;20398;-77
2021/07/20 02:11:56;;;;;;;1.30;1.20;;;22.20;99.90;;;;;;4995373;28;20137;-76
2021/07/20 02:14:28;;;;;;;1.88;1.75;;;22.10;99.90;;;;;;4995416;28;20454;-78
2021/07/20 02:16:56;;;;;;;2.00;1.63;;;22.00;99.90;;;;;;4995429;28;20043;-77
2021/07/20 02:19:41;;;;;;;2.15;2.05;;;21.90;99.90;;;;;;4994565;28;20054;-77
2021/07/20 02:22:09;;;;;;;2.05;1.88;;;21.80;99.90;;;;;;4978011;28;20034;-78
2021/07/20 02:24:37;;;;;;;1.95;1.63;;;21.80;99.90;;;;;;4994687;28;20041;-77
2021/07/20 02:27:06;;;;;;;2.38;2.25;;;21.80;99.90;;;;;;4978070;28;20045;-78
2021/07/20 02:29:33;;;;;;;1.30;1.20;;;21.70;99.90;;;;;;4977194;28;20125;-77
2021/07/20 02:32:03;;;;;;;1.98;1.83;;;21.70;99.90;;;;;;4994759;28;20038;-78
2021/07/20 02:34:31;;;;;;;2.80;2.03;;;21.70;99.90;;;;;;4994784;28;20034;-79
2021/07/20 02:36:57;;;;;;;1.17;1.15;;;21.70;99.90;;;;;;4994996;28;20026;-79
2021/07/20 02:39:25;;;;;;;1.33;1.23;;;21.70;99.90;;;;;;4994925;28;20030;-80
2021/07/20 02:41:53;;;;;;;1.40;1.30;;;21.70;99.90;;;;;;4994998;28;20060;-81
2021/07/20 02:44:20;;;;;;;1.23;1.13;;;21.70;99.90;;;;;;4994937;28;20044;-79
2021/07/20 02:46:46;;;;;;;1.23;1.13;;;21.80;99.90;;;;;;4994656;28;20101;-82
2021/07/20 02:49:13;;;;;;;1.80;1.65;;;21.70;99.90;;;;;;4994447;28;20034;-82
2021/07/20 02:51:40;;;;;;;1.70;1.60;;;21.70;99.90;;;;;;4994775;28;20050;-80
2021/07/20 02:54:07;;;;;;;1.00;1.00;;;21.70;99.90;;;;;;4994178;28;20037;-77
2021/07/20 02:56:34;;;;;;;2.33;2.13;;;21.60;99.90;;;;;;4994717;28;20668;-77
2021/07/20 02:59:04;;;;;;;3.15;2.85;;;21.60;99.90;;;;;;4994592;28;20097;-80
2021/07/20 03:01:33;;;;;;;1.77;1.67;;;21.50;99.90;;;;;;4976418;28;20394;-78
2021/07/20 03:03:59;;;;;;;1.85;1.75;;;21.60;99.90;;;;;;4977008;28;20318;-77
2021/07/20 03:06:27;;;;;;;3.20;2.78;;;21.50;99.90;;;;;;4977176;28;20435;-81
2021/07/20 03:08:58;;;;;;;1.40;1.30;;;21.40;99.90;;;;;;4976524;28;20134;-81
2021/07/20 03:11:28;;;;;;;1.77;1.60;;;21.50;99.90;;;;;;4976875;28;20060;-79
2021/07/20 03:13:56;;;;;;;;;;;21.50;99.90;;;;;;4994609;28;20046;-80
2021/07/20 03:16:23;;;;;;;1.65;1.38;;;21.50;99.90;;;;;;4993654;28;20381;-77
2021/07/20 03:18:52;;;;;;;1.20;1.10;;;21.60;99.90;;;;;;4994309;28;20026;-77
2021/07/20 03:21:19;;;;;;;1.83;1.73;;;21.50;99.90;;;;;;4994343;28;20034;-79
2021/07/20 03:23:46;;;;;;;1.48;1.38;;;21.50;99.90;;;;;;4993908;28;20141;-79
2021/07/20 03:26:14;;;;;;;4.47;2.08;;;21.50;99.90;;;;;;4994567;28;20410;-78
2021/07/20 03:28:42;;;;;;;4.63;1.42;;;21.40;99.90;;;;;;4994069;28;20022;-77
2021/07/20 03:31:09;;;;;;;1.10;1.10;;;21.40;99.90;;;;;;4993856;28;20042;-81
2021/07/20 03:33:38;;;;;;;1.15;1.10;;;21.50;99.90;;;;;;4993963;28;20125;-80
2021/07/20 03:36:04;;;;;;;1.52;1.42;;;21.40;99.90;;;;;;4976531;28;20121;-78
2021/07/20 03:38:31;;;;;;;6.93;3.00;;;21.50;99.90;;;;;;4993580;28;20092;-80
2021/07/20 03:40:58;;;;;;;1.58;1.48;;;21.50;99.90;;;;;;4994069;28;20058;-79
2021/07/20 03:43:24;;;;;;;2.35;2.17;;;21.40;99.90;;;;;;4993890;28;20042;-81
2021/07/20 03:45:52;;;;;;;2.05;1.60;;;21.50;99.90;;;;;;4993782;28;20038;-79
2021/07/20 03:48:19;;;;;;;1.42;1.33;;;21.40;99.90;;;;;;4993638;28;20042;-81
2021/07/20 03:50:47;;;;;;;1.40;1.30;;;21.40;99.90;;;;;;4993711;28;20035;-80
2021/07/20 03:53:13;;;;;;;1.40;1.30;;;21.50;99.90;;;;;;4975848;28;20038;-80
2021/07/20 03:55:47;;;;;;;1.00;1.00;;;21.50;99.90;;;;;;4993498;28;20030;-81
2021/07/20 03:58:16;;;;;;;1.02;1.02;;;21.60;99.90;;;;;;4976048;28;20129;-81
2021/07/20 04:00:44;;;;;;;1.00;1.00;;;21.60;99.90;;;;;;4993883;28;20425;-81
2021/07/20 04:03:21;;;;;;;1.30;1.20;;;21.60;99.90;;;;;;4993150;28;20081;-77
2021/07/20 04:05:50;;;;;;;1.10;1.10;;;21.60;99.90;;;;;;4992896;28;20030;-79
2021/07/20 04:08:18;;;;;;;1.38;1.20;;;21.70;99.90;;;;;;4993299;28;20034;-83
2021/07/20 04:10:46;;;;;;;24.90;1.90;;;21.70;99.90;;;;;;4993329;28;20486;-78
2021/07/20 04:13:13;;;;;;;23.17;2.55;;;21.90;99.90;;;;;;4974888;28;20046;-80
2021/07/20 04:15:45;;;;;;;2.00;1.80;;;21.90;99.90;;;;;;4993225;28;20038;-80
2021/07/20 04:18:12;;;;;;;1.52;1.42;;;21.90;99.90;;;;;;4993021;28;20039;-80
2021/07/20 04:20:38;;;;;;;22.08;2.47;;;21.90;99.90;;;;;;4975462;28;20038;-77
2021/07/20 04:23:05;;;;;;;1.33;1.23;;;21.90;99.90;;;;;;4992787;28;20057;-76
2021/07/20 04:25:32;;;;;;;2.08;1.85;;;22.00;99.90;;;;;;4975431;28;20045;-77
2021/07/20 04:27:58;;;;;;;1.35;1.25;;;22.10;99.90;;;;;;4992535;28;20026;-79
2021/07/20 04:30:23;;;;;;;1.52;1.42;;;22.00;99.90;;;;;;4993264;28;20080;-76
2021/07/20 04:32:49;;;;;;;1.48;1.38;;;22.00;99.90;;;;;;4992737;28;20406;-77
2021/07/20 04:35:17;;;;;;;1.48;1.38;;;22.20;99.90;;;;;;4975095;28;20509;-77
2021/07/20 04:37:44;;;;;;;1.02;1.02;;;22.20;99.90;;;;;;4975220;28;20398;-80
2021/07/20 04:40:14;;;;;;;1.55;1.45;;;22.20;99.90;;;;;;4975221;28;20445;-77
2021/07/20 04:42:41;;;;;;;1.85;1.75;;;22.30;99.90;;;;;;4992574;28;20046;-77
2021/07/20 04:45:11;;;;;;;1.52;1.42;;;22.30;99.90;;;;;;4992325;28;20386;-78
2021/07/20 04:47:38;;;;;;;2.00;1.80;;;22.30;99.90;;;;;;4992638;28;20074;-76
2021/07/20 04:50:06;;;;;;;2.88;2.55;;;22.40;99.90;;;;;;4975394;28;20042;-82
2021/07/20 04:52:33;;;;;;;5.25;3.53;;;22.50;99.90;;;;;;4975019;28;20066;-82
2021/07/20 04:55:00;;;;;;;3.22;2.90;;;22.50;99.90;;;;;;4992630;28;20034;-81
2021/07/20 04:57:26;;;;;;;3.05;2.47;;;22.60;99.90;;;;;;4974795;28;20035;-77
2021/07/20 04:59:51;;;;;;;0.95;0.95;;;22.60;99.90;;;;;;4974446;28;20049;-77
2021/07/20 05:02:18;;;;;;;5.53;4.78;;;22.60;99.90;;;;;;4974628;28;20405;-78
2021/07/20 05:04:44;;;;;;;11.25;7.30;;;22.60;99.90;;;;;;4992196;28;20048;-79
2021/07/20 05:07:13;;;;;;;10.07;7.60;;;22.70;99.90;;;;;;4992198;28;20461;-75
2021/07/20 05:09:39;;;;;;;4.55;4.15;;;22.80;99.90;;;;;;4974785;28;20034;-77
2021/07/20 05:12:06;;;;;;;7.22;6.25;;;22.80;99.90;;;;;;4991806;28;20047;-80
2021/07/20 05:14:33;;;;;;;2.97;2.67;;;22.90;99.90;;;;;;4974791;28;20038;-77
2021/07/20 05:16:59;;;;;;;2.65;2.10;;;22.80;99.90;;;;;;4991947;28;20061;-80
2021/07/20 05:19:26;;;;;;;8.43;4.25;;;22.80;99.90;;;;;;4984720;28;20092;-76
2021/07/20 05:21:53;;;;;;;1.60;1.50;;;23.00;99.90;;;;;;5011560;28;20026;-78
2021/07/20 05:24:19;;;;;;;6.97;4.38;;;23.00;99.90;;;;;;5011755;28;20026;-78
2021/07/20 05:26:48;;;;;;;1.75;1.65;;;23.00;99.90;;;;;;5011692;28;20432;-78
2021/07/20 05:29:16;;;;;;;6.90;2.72;;;23.10;99.90;;;;;;4999856;28;20104;-78
2021/07/20 05:31:45;;;;;;;4.10;3.65;;;23.10;99.90;;;;;;4991449;28;20046;-77
2021/07/20 05:34:13;;;;;;;11.25;5.32;;;23.20;99.90;;;;;;4991581;28;20049;-79
2021/07/20 05:36:39;;;;;;;2.05;1.92;;;23.20;99.90;;;;;;4991746;28;20030;-77
2021/07/20 05:39:05;;;;;;;1.60;1.50;;;23.30;99.90;;;;;;4991784;28;20037;-81
2021/07/20 05:41:31;;;;;;;1.73;1.63;;;23.30;99.90;;;;;;4991495;28;20022;-82
2021/07/20 05:43:58;;;;;;;2.55;2.03;;;23.50;99.90;;;;;;4999995;28;20030;-77
2021/07/20 05:46:25;;;;;;;1.67;1.58;;;23.10;99.90;;;;;;5000312;28;20442;-78
2021/07/20 05:48:52;;;;;;;4.53;3.30;;;22.60;99.90;;;;;;4974395;28;20034;-75
2021/07/20 05:51:20;;;;;;;3.15;1.80;;;22.20;99.90;;;;;;4991862;28;20030;-77
2021/07/20 05:53:46;;;;;;;3.78;3.40;;;22.40;99.90;;;;;;4991518;28;20030;-81
2021/07/20 05:56:13;;;;;;;2.65;2.17;;;22.40;99.90;;;;;;4991476;28;20034;-78
2021/07/20 05:58:39;;;;;;;3.05;1.77;;;22.60;99.90;;;;;;4991519;28;20038;-79
2021/07/20 06:01:08;;;;;;;0.90;0.90;;;22.60;99.90;;;;;;4992433;28;20436;-77
2021/07/20 06:03:35;;;;;;;0.98;0.98;;;22.70;99.90;;;;;;4990828;28;20050;-78
2021/07/20 06:06:02;;;;;;;2.03;1.88;;;22.70;99.90;;;;;;4991501;28;20044;-76
2021/07/20 06:08:29;;;;;;;1.63;1.52;;;22.80;99.90;;;;;;4991315;28;20171;-78
2021/07/20 06:10:58;;;;;;;1.38;1.27;;;22.80;99.90;;;;;;4991201;28;20081;-77
2021/07/20 06:13:25;;;;;;;1.50;1.40;;;22.70;99.90;;;;;;4991084;28;20093;-77
2021/07/20 06:15:52;;;;;;;1.33;1.08;;;22.70;99.90;;;;;;4991593;28;20034;-77
2021/07/20 06:18:18;;;;;;;2.88;1.60;;;22.70;99.90;;;;;;4991312;28;20049;-78
2021/07/20 06:21:01;;;;;;;2.38;2.17;;;22.80;99.90;;;;;;4974165;28;20418;-78
2021/07/20 06:23:33;;;;;;;1.63;1.52;;;22.80;99.90;;;;;;4974212;28;20038;-78
2021/07/20 06:25:59;;;;;;;1.25;1.15;;;22.90;99.90;;;;;;4991784;28;20018;-78
2021/07/20 06:28:26;;;;;;;1.08;1.05;;;23.00;99.90;;;;;;4991311;28;20355;-78
2021/07/20 06:30:53;;;;;;;1.30;1.20;;;23.10;99.90;;;;;;4991297;28;20376;-77
2021/07/20 06:33:20;;;;;;;3.63;2.45;;;23.30;99.90;;;;;;4991262;28;20042;-77
2021/07/20 06:35:47;;;;;;;1.85;1.58;;;23.70;99.90;;;;;;4993204;28;20744;-78
2021/07/20 06:38:18;;;;;;;1.73;1.30;;;24.00;99.90;;;;;;4994741;28;20034;-77
2021/07/20 06:40:47;;;;;;;2.53;2.15;;;24.10;99.90;;;;;;4994966;28;20031;-78
2021/07/20 06:43:14;;;;;;;1.55;1.45;;;24.20;99.90;;;;;;4994292;28;20058;-78
2021/07/20 06:45:42;;;;;;;1.35;1.25;;;24.30;99.90;;;;;;4995188;28;20034;-78
2021/07/20 06:48:12;;;;;;;2.58;1.30;;;24.50;99.90;;;;;;4994651;28;20039;-78
2021/07/20 06:50:39;;;;;;;5.57;1.88;;;24.70;99.90;;;;;;4994772;28;20026;-78
2021/07/20 06:53:05;;;;;;;2.08;1.90;;;24.50;99.90;;;;;;4994292;28;20057;-77
2021/07/20 06:55:33;;;;;;;1.20;1.10;;;24.60;99.90;;;;;;4994145;28;20034;-77
2021/07/20 06:58:01;;;;;;;1.27;1.17;;;24.90;99.90;;;;;;4994640;28;20105;-77
2021/07/20 07:00:29;;;;;;;1.60;1.50;;;24.70;99.90;;;;;;4977179;28;20050;-78
2021/07/20 07:03:00;;;;;;;0.80;0.80;;;24.60;99.90;;;;;;4994581;28;20166;-78
2021/07/20 07:05:28;;;;;;;1.20;1.10;;;24.70;99.90;;;;;;4994430;28;20027;-77
2021/07/20 07:07:55;;;;;;;1.38;1.27;;;24.80;99.90;;;;;;4994294;28;20471;-78
2021/07/20 07:10:22;;;;;;;0.82;0.82;;;24.60;99.90;;;;;;4994498;28;20033;-78
2021/07/20 07:12:50;;;;;;;1.00;1.00;;;24.60;99.90;;;;;;4994246;28;20049;-75
2021/07/20 07:15:18;;;;;;;1.35;1.25;;;24.80;99.90;;;;;;4994391;28;20568;-78
2021/07/20 07:17:49;;;;;;;2.75;1.27;;;25.00;99.90;;;;;;4994372;28;20038;-78
2021/07/20 07:20:24;;;;;;;1.05;0.98;;;25.10;99.90;;;;;;4994439;28;20037;-77
2021/07/20 07:22:50;;;;;;;13.90;2.35;;;25.30;99.90;;;;;;4976773;28;20097;-77
2021/07/20 07:25:18;;;;;;;1.17;1.08;;;25.30;99.90;;;;;;4993767;28;20022;-77
2021/07/20 07:27:45;;;;;;;1.63;1.52;;;25.40;99.90;;;;;;4976578;28;20399;-77
2021/07/20 07:30:11;;;;;;;0.90;0.90;;;25.40;99.90;;;;;;4993729;28;20026;-78
2021/07/20 07:32:38;;;;;;;4.05;1.30;;;25.50;99.90;;;;;;4994125;28;20133;-77
2021/07/20 07:35:05;;;;;;;2.97;1.80;;;25.50;99.90;;;;;;4993518;28;20573;-77
2021/07/20 07:37:33;;;;;;;0.90;0.90;;;25.50;99.90;;;;;;4994087;28;20035;-78
2021/07/20 07:40:01;;;;;;;1.48;1.38;;;25.60;99.90;;;;;;4994063;28;20034;-78
2021/07/20 07:42:28;;;;;;;1.10;1.00;;;25.60;99.90;;;;;;4993971;28;20038;-78
2021/07/20 07:44:55;;;;;;;1.25;1.10;;;25.70;99.90;;;;;;4993616;28;20037;-77
2021/07/20 07:47:24;;;;;;;0.60;0.60;;;25.60;99.90;;;;;;4993044;28;20166;-79
2021/07/20 07:49:51;;;;;;;2.65;1.63;;;25.70;99.90;;;;;;4993479;28;20041;-79
2021/07/20 07:52:17;;;;;;;2.30;1.77;;;25.60;99.90;;;;;;4993886;28;20035;-78
2021/07/20 07:54:46;;;;;;;0.93;0.75;;;25.80;99.90;;;;;;4993502;28;20070;-78
2021/07/20 07:57:15;;;;;;;1.00;1.00;;;25.90;99.90;;;;;;4993313;28;20044;-78
2021/07/20 07:59:42;;;;;;;1.65;1.02;;;25.80;99.90;;;;;;4993497;28;20034;-78
2021/07/20 08:02:12;;;;;;;1.45;1.23;;;25.80;99.90;;;;;;4993915;28;20031;-77
2021/07/20 08:04:41;;;;;;;3.75;2.50;;;25.90;99.90;;;;;;4993073;28;20022;-78
2021/07/20 08:07:09;;;;;;;0.80;0.80;;;25.90;99.90;;;;;;4993651;28;20034;-76
2021/07/20 08:09:36;;;;;;;3.10;1.58;;;25.90;99.90;;;;;;4993227;28;20034;-77
2021/07/20 08:12:03;;;;;;;1.08;1.02;;;26.00;99.90;;;;;;4993279;28;20054;-77
2021/07/20 08:14:29;;;;;;;0.85;0.85;;;26.00;99.90;;;;;;4993298;28;20034;-77
2021/07/20 08:16:59;;;;;;;0.88;0.88;;;26.30;99.90;;;;;;4993105;28;20069;-77
2021/07/20 08:19:27;;;;;;;0.93;0.88;;;26.50;99.90;;;;;;4992967;28;20061;-80
2021/07/20 08:21:59;;;;;;;0.80;0.80;;;26.40;99.90;;;;;;4993221;28;20029;-79
2021/07/20 08:24:26;;;;;;;2.05;1.38;;;26.30;99.90;;;;;;4992913;28;20038;-78
2021/07/20 08:26:59;;;;;;;0.80;0.80;;;26.20;99.90;;;;;;4992812;28;20443;-78
2021/07/20 08:29:33;;;;;;;2.17;1.65;;;26.10;99.90;;;;;;4992532;28;20517;-78
2021/07/20 08:32:21;;;;;;;32.22;1.67;;;26.20;99.90;;;;;;4992834;28;20030;-79
2021/07/20 08:35:02;;;;;;;3.15;1.65;;;26.30;99.90;;;;;;4992750;28;20062;-78
2021/07/20 08:37:32;;;;;;;1.10;1.00;;;26.30;99.90;;;;;;4975080;28;20034;-78
2021/07/20 08:40:01;;;;;;;0.65;0.65;;;26.20;99.90;;;;;;4992677;28;20364;-77
2021/07/20 08:42:56;;;;;;;1.35;1.25;;;26.30;99.90;;;;;;4992863;28;20062;-78
2021/07/20 08:45:29;;;;;;;0.77;0.77;;;26.50;99.90;;;;;;4930890;28;20038;-78
2021/07/20 08:48:01;;;;;;;2.42;1.65;;;26.80;99.90;;;;;;4992485;28;20367;-78
2021/07/20 08:50:27;;;;;;;1.13;1.02;;;26.90;99.90;;;;;;4992693;28;20034;-78
2021/07/20 08:53:23;;;;;;;4.30;1.42;;;26.90;99.90;;;;;;4992553;28;20053;-77
2021/07/20 08:55:52;;;;;;;0.55;0.55;;;27.00;99.90;;;;;;4992269;28;20049;-75
2021/07/20 08:58:26;;;;;;;0.52;0.52;;;27.00;99.90;;;;;;4992130;28;20027;-78
2021/07/20 09:00:56;;;;;;;1.13;1.02;;;26.80;99.90;;;;;;4993008;28;20034;-77
2021/07/20 09:03:25;;;;;;;0.77;0.77;;;26.50;99.40;;;;;;4992483;28;20042;-79
2021/07/20 09:06:04;;;;;;;0.70;0.70;;;26.60;99.90;;;;;;4992102;28;20030;-77
2021/07/20 09:08:44;;;;;;;1.25;1.15;;;26.80;99.90;;;;;;4992047;28;20027;-78
2021/07/20 09:11:34;;;;;;;1.70;1.17;;;27.10;99.90;;;;;;4992018;28;20133;-78
2021/07/20 09:14:19;;;;;;;;;;;27.30;99.00;;;;;;4992513;28;20034;-77
2021/07/20 09:16:55;;;;;;;0.70;0.70;;;27.30;98.70;;;;;;4992229;28;19959;-78
2021/07/20 09:19:39;;;;;;;1.05;0.88;;;27.80;98.80;;;;;;4991901;28;20073;-78
2021/07/20 09:22:15;;;;;;;1.75;1.35;;;28.20;98.30;;;;;;4991911;28;20126;-77
2021/07/20 09:25:05;;;;;;;4.28;1.70;;;28.30;97.80;;;;;;4992051;28;20446;-78
2021/07/20 09:27:36;;;;;;;0.80;0.80;;;28.40;97.20;;;;;;4974387;28;20490;-75
2021/07/20 09:30:09;;;;;;;3.65;1.25;;;28.40;97.20;;;;;;4991622;28;20038;-75
2021/07/20 09:33:09;;;;;;;1.00;0.95;;;28.10;97.20;;;;;;4992057;28;20097;-78
2021/07/20 09:35:51;;;;;;;0.85;0.82;;;28.30;97.10;;;;;;4974511;28;20038;-78
2021/07/20 09:38:29;;;;;;;6.25;1.50;;;28.10;96.80;;;;;;4991536;28;20038;-78
2021/07/20 09:41:22;;;;;;;0.45;0.45;;;28.10;96.80;;;;;;4974288;28;20486;-78
2021/07/20 09:43:53;;;;;;;2.08;1.98;;;27.20;97.20;;;;;;4991723;28;20077;-78
2021/07/20 09:46:37;;;;;;;0.90;0.88;;;27.50;97.80;;;;;;4991539;28;20058;-78
2021/07/20 09:49:09;;;;;;;0.50;0.50;;;27.90;97.80;;;;;;4991759;28;20101;-78
2021/07/20 09:51:55;;;;;;;0.60;0.60;;;28.30;96.20;;;;;;4991701;28;20034;-78
2021/07/20 09:54:52;;;;;;;1.08;0.98;;;28.70;95.20;;;;;;4974179;28;20070;-78
2021/07/20 09:57:46;;;;;;;1.23;1.15;;;28.90;94.70;;;;;;4973849;28;20034;-78
2021/07/20 10:00:20;;;;;;;0.60;0.60;;;29.00;95.20;;;;;;4991709;28;20034;-78
2021/07/20 10:03:04;;;;;;;0.32;0.32;;;29.30;94.10;;;;;;4974354;28;20761;-76
2021/07/20 10:06:03;;;;;;;7.55;1.25;;;29.50;93.50;;;;;;4991633;28;20130;-76
2021/07/20 10:09:09;;;;;;;2.83;1.77;;;29.80;92.40;;;;;;4974166;28;20041;-77
2021/07/20 10:11:47;;;;;;;0.47;0.47;;;29.80;91.40;;;;;;4976643;28;20050;-79
2021/07/20 10:14:30;;;;;;;0.50;0.50;;;29.90;91.00;;;;;;5004601;28;20100;-78
2021/07/20 10:17:25;;;;;;;0.93;0.88;;;30.00;90.60;;;;;;4983579;28;20102;-78
2021/07/20 10:20:11;;;;;;;0.70;0.70;;;29.90;90.70;;;;;;4999715;28;20109;-78
2021/07/20 10:22:49;;;;;;;1.02;0.95;;;29.10;90.70;;;;;;5000291;28;20393;-76
2021/07/20 10:25:40;;;;;;;0.45;0.45;;;29.20;91.20;;;;;;5000276;28;20084;-78
2021/07/20 10:28:25;;;;;;;3.63;1.10;;;29.50;90.80;;;;;;5000884;28;20038;-77
2021/07/20 10:31:07;;;;;;;5.93;1.25;;;29.80;90.10;;;;;;4995514;28;20121;-78
2021/07/20 10:33:40;;;;;;;0.90;0.82;;;30.00;88.90;;;;;;4994964;28;20077;-80
2021/07/20 10:36:19;;;;;;;0.82;0.75;;;29.90;87.20;;;;;;4995121;28;20438;-78
2021/07/20 10:38:51;;;;;;;0.50;0.50;;;29.60;88.00;;;;;;4995213;28;20053;-79
2021/07/20 10:41:24;;;;;;;0.47;0.47;;;29.80;87.60;;;;;;4994785;28;20038;-77
2021/07/20 10:44:07;;;;;;;0.73;0.73;;;29.80;88.50;;;;;;5001205;28;20049;-78
2021/07/20 10:46:35;;;;;;;0.85;0.65;;;30.20;87.80;;;;;;5002989;28;20070;-78
2021/07/20 10:49:42;;;;;;;2.65;1.30;;;30.50;86.40;;;;;;4999714;28;20030;-78
2021/07/20 10:52:21;;;;;;;1.95;0.82;;;30.80;86.00;;;;;;4973242;28;20042;-77
2021/07/20 10:55:02;;;;;;;0.40;0.40;;;30.70;84.00;;;;;;5001038;28;20030;-76
2021/07/20 10:57:36;;;;;;;0.50;0.50;;;30.80;84.00;;;;;;4985465;28;20071;-76
2021/07/20 11:00:07;;;;;;;0.95;0.77;;;30.90;84.60;;;;;;4999766;28;20100;-77
2021/07/20 11:02:49;;;;;;;0.40;0.40;;;31.20;82.40;;;;;;5002137;28;20116;-79
2021/07/20 11:05:16;;;;;;;0.32;0.32;;;31.20;81.60;;;;;;5003149;28;20042;-76
2021/07/20 11:07:54;;;;;;;1.15;0.80;;;31.30;80.80;;;;;;4999395;28;20041;-77
2021/07/20 11:10:21;;;;;;;0.20;0.20;;;31.20;80.90;;;;;;5001655;28;20057;-78
2021/07/20 11:12:56;;;;;;;0.75;0.43;;;30.90;80.60;;;;;;5002771;28;20485;-76
2021/07/20 11:15:24;;;;;;;0.40;0.40;;;29.90;81.00;;;;;;4999968;28;20038;-79
2021/07/20 11:17:51;;;;;;;1.33;1.00;;;30.10;81.20;;;;;;5002433;28;20030;-80
2021/07/20 11:20:20;;;;;;;0.75;0.70;;;30.60;79.90;;;;;;5003568;28;20599;-81
2021/07/20 11:22:48;;;;;;;1.85;0.73;;;30.80;79.40;;;;;;5002054;28;20034;-78
2021/07/20 11:25:15;;;;;;;3.00;1.60;;;30.80;77.60;;;;;;5002110;28;20117;-80
2021/07/20 11:27:44;;;;;;;0.93;0.63;;;31.00;77.20;;;;;;4998977;28;20026;-78
2021/07/20 11:30:16;;;;;;;0.57;0.55;;;31.30;77.80;;;;;;4985709;28;20045;-78
2021/07/20 11:32:57;;;;;;;0.40;0.40;;;31.90;76.70;;;;;;4998707;28;20076;-79
2021/07/20 11:35:24;;;;;;;1.75;0.93;;;31.90;76.40;;;;;;4999362;28;20026;-80
2021/07/20 11:38:00;;;;;;;0.90;0.90;;;31.90;77.00;;;;;;5002209;28;20433;-79
2021/07/20 11:40:35;;;;;;;1.00;0.90;;;31.60;76.30;;;;;;4999474;28;20027;-77
2021/07/20 11:43:09;;;;;;;1.92;0.88;;;31.20;76.30;;;;;;5001309;28;20602;-79
2021/07/20 11:45:45;;;;;;;2.40;1.20;;;30.80;76.70;;;;;;5007311;28;20044;-79
2021/07/20 11:48:12;;;;;;;0.40;0.40;;;30.90;77.50;;;;;;5008686;28;20049;-78
2021/07/20 11:50:44;;;;;;;0.40;0.40;;;31.10;76.30;;;;;;4983648;28;20030;-75
2021/07/20 11:53:10;;;;;;;1.10;1.00;;;31.00;76.70;;;;;;5001289;28;20363;-78
2021/07/20 11:55:58;;;;;;;1.58;1.38;;;31.30;75.10;;;;;;4998398;28;20046;-77
2021/07/20 11:58:39;;;;;;;1.00;0.85;;;31.70;74.00;;;;;;4990964;28;20049;-76
2021/07/20 12:01:29;;;;;;;0.70;0.60;;;31.70;75.70;;;;;;4988527;28;20034;-78
2021/07/20 12:04:17;;;;;;;0.68;0.68;;;31.90;72.70;;;;;;4995068;28;20107;-77
2021/07/20 12:07:20;;;;;;;1.42;1.33;;;32.10;72.50;;;;;;5007292;28;20026;-76
2021/07/20 12:10:09;;;;;;;0.55;0.47;;;31.40;72.40;;;;;;4973372;28;20053;-76
2021/07/20 12:12:52;;;;;;;0.50;0.50;;;31.20;73.70;;;;;;4970702;28;20086;-78
2021/07/20 12:15:21;;;;;;;0.93;0.90;;;30.80;71.90;;;;;;4982842;28;20030;-77
2021/07/20 12:17:48;;;;;;;0.43;0.40;;;31.10;72.60;;;;;;4988261;28;20044;-76
2021/07/20 12:20:17;;;;;;;1.48;0.98;;;31.50;72.40;;;;;;4991844;28;20058;-77
2021/07/20 12:22:49;;;;;;;0.50;0.50;;;31.40;73.20;;;;;;4991714;28;20519;-77
2021/07/20 12:25:18;;;;;;;0.95;0.63;;;31.60;72.60;;;;;;4976497;28;20038;-75
2021/07/20 12:27:46;;;;;;;0.30;0.30;;;31.10;72.20;;;;;;4974938;28;20031;-79
2021/07/20 12:30:14;;;;;;;0.68;0.68;;;31.30;72.40;;;;;;4997996;28;20525;-79
2021/07/20 12:32:42;;;;;;;0.65;0.63;;;31.80;69.60;;;;;;4973352;28;20078;-81
2021/07/20 12:35:11;;;;;;;0.68;0.65;;;32.30;67.80;;;;;;4973207;28;20027;-81
2021/07/20 12:37:39;;;;;;;0.40;0.40;;;32.50;66.70;;;;;;4977670;28;20040;-83
2021/07/20 12:40:08;;;;;;;0.60;0.60;;;32.60;67.00;;;;;;4991861;28;20038;-78
2021/07/20 12:42:36;;;;;;;0.63;0.50;;;32.80;68.30;;;;;;4991103;28;20041;-80
2021/07/20 12:45:11;;;;;;;1.27;0.70;;;33.00;67.80;;;;;;4992315;28;20034;-79
2021/07/20 12:47:48;;;;;;;0.77;0.75;;;32.40;68.10;;;;;;4992819;28;20072;-79
2021/07/20 12:50:16;;;;;;;2.08;1.45;;;31.80;67.40;;;;;;4992377;28;20030;-80
2021/07/20 12:52:47;;;;;;;0.75;0.75;;;30.90;69.40;;;;;;4993027;28;20188;-81
2021/07/20 12:55:20;;;;;;;0.40;0.40;;;31.30;69.70;;;;;;4992094;28;20030;-78
2021/07/20 12:57:57;;;;;;;0.82;0.75;;;32.00;69.20;;;;;;4992412;28;20031;-81
2021/07/20 13:00:25;;;;;;;0.30;0.30;;;32.00;66.90;;;;;;4992585;28;20061;-81
2021/07/20 13:02:52;;;;;;;1.90;1.05;;;32.40;67.30;;;;;;4992462;28;20434;-78
2021/07/20 13:05:20;;;;;;;0.82;0.82;;;32.50;67.40;;;;;;4990834;28;20066;-81
2021/07/20 13:07:49;;;;;;;0.57;0.40;;;30.90;67.60;;;;;;4992157;28;20054;-76
2021/07/20 13:10:15;;;;;;;0.88;0.88;;;30.80;67.50;;;;;;4992310;28;20105;-80